createdAt,value
2023-04-12T00:00:11.475Z,61.84
2023-04-12T00:02:39.500Z,60.95
2023-04-12T00:05:06.777Z,62.11
2023-04-12T00:07:33.826Z,60.80
2023-04-12T00:10:00.563Z,61.69
2023-04-12T00:12:27.225Z,61.07
2023-04-12T00:14:53.949Z,61.64
2023-04-12T00:17:20.739Z,61.07
2023-04-12T00:19:48.674Z,61.39
2023-04-12T00:22:15.531Z,60.59
2023-04-12T00:24:42.195Z,61.10
2023-04-12T00:27:09.057Z,62.13
2023-04-12T00:29:35.846Z,61.88
2023-04-12T00:32:03.847Z,61.42
2023-04-12T00:34:31.058Z,61.85
2023-04-12T00:36:57.699Z,61.65
2023-04-12T00:39:24.350Z,61.39
2023-04-12T00:41:51.159Z,61.25
2023-04-12T00:44:18.399Z,61.56
2023-04-12T00:46:46.694Z,61.36
2023-04-12T00:49:13.574Z,60.84
2023-04-12T00:51:42.719Z,60.20
2023-04-12T00:54:09.509Z,60.83
2023-04-12T00:56:37.796Z,61.39
2023-04-12T00:59:04.424Z,61.20
2023-04-12T01:01:32.114Z,61.06
2023-04-12T01:04:02.260Z,61.05
2023-04-12T01:06:46.621Z,60.50
2023-04-12T01:09:22.406Z,60.69
2023-04-12T01:11:59.108Z,60.53
2023-04-12T01:14:35.806Z,61.47
2023-04-12T01:17:07.328Z,60.50
2023-04-12T01:19:57.974Z,60.48
2023-04-12T01:22:54.885Z,61.49
2023-04-12T01:25:46.518Z,61.69
2023-04-12T01:28:16.318Z,60.82
2023-04-12T01:30:44.433Z,60.87
2023-04-12T01:33:12.424Z,60.98
2023-04-12T01:35:40.994Z,60.68
2023-04-12T01:38:08.093Z,60.44
2023-04-12T01:40:36.143Z,59.16
2023-04-12T01:43:13.823Z,60.09
2023-04-12T01:45:40.878Z,59.96
2023-04-12T01:48:12.302Z,58.47
2023-04-12T01:50:49.276Z,60.09
2023-04-12T01:53:23.464Z,59.56
2023-04-12T01:55:51.362Z,59.50
2023-04-12T01:58:22.054Z,58.70
2023-04-12T02:00:50.025Z,60.44
2023-04-12T02:03:18.483Z,59.16
2023-04-12T02:05:45.569Z,59.28
2023-04-12T02:08:12.571Z,59.79
2023-04-12T02:10:40.451Z,60.94
2023-04-12T02:13:07.137Z,61.47
2023-04-12T02:15:34.280Z,59.48
2023-04-12T02:18:02.229Z,59.87
2023-04-12T02:20:29.721Z,60.03
2023-04-12T02:22:56.320Z,59.30
2023-04-12T02:25:22.984Z,59.29
2023-04-12T02:27:49.579Z,60.29
2023-04-12T02:30:16.348Z,60.64
2023-04-12T02:32:45.635Z,60.64
2023-04-12T02:35:18.915Z,60.06
2023-04-12T02:37:48.515Z,60.21
2023-04-12T02:40:19.548Z,61.30
2023-04-12T02:42:46.396Z,62.08
2023-04-12T02:45:13.096Z,61.53
2023-04-12T02:47:40.985Z,60.19
2023-04-12T02:50:09.210Z,59.76
2023-04-12T02:52:35.961Z,60.21
2023-04-12T02:55:03.060Z,59.40
2023-04-12T02:57:29.790Z,59.49
2023-04-12T02:59:56.493Z,59.16
2023-04-12T03:02:23.418Z,59.05
2023-04-12T03:04:51.232Z,58.92
2023-04-12T03:07:19.663Z,59.15
2023-04-12T03:09:47.782Z,59.24
2023-04-12T03:12:16.351Z,60.51
2023-04-12T03:14:43.448Z,61.97
2023-04-12T03:17:10.941Z,63.05
2023-04-12T03:19:37.613Z,62.64
2023-04-12T03:22:04.940Z,61.73
2023-04-12T03:24:34.240Z,61.33
2023-04-12T03:27:02.891Z,61.53
2023-04-12T03:29:30.365Z,62.45
2023-04-12T03:31:58.272Z,62.19
2023-04-12T03:34:27.864Z,61.66
2023-04-12T03:36:55.731Z,62.45
2023-04-12T03:39:23.045Z,62.58
2023-04-12T03:41:49.998Z,62.71
2023-04-12T03:44:16.643Z,62.11
2023-04-12T03:46:43.294Z,62.53
2023-04-12T03:49:10.086Z,61.87
2023-04-12T03:51:42.800Z,61.76
2023-04-12T03:54:10.867Z,60.64
2023-04-12T03:56:38.764Z,61.58
2023-04-12T03:59:07.758Z,62.21
2023-04-12T04:01:35.722Z,62.28
2023-04-12T04:04:03.630Z,61.14
2023-04-12T04:06:30.646Z,60.68
2023-04-12T04:08:57.955Z,61.70
2023-04-12T04:11:25.668Z,61.58
2023-04-12T04:13:52.366Z,60.22
2023-04-12T04:16:19.225Z,60.66
2023-04-12T04:18:49.016Z,61.28
2023-04-12T04:21:15.735Z,60.56
2023-04-12T04:23:45.158Z,59.57
2023-04-12T04:26:12.605Z,59.99
2023-04-12T04:28:45.106Z,60.30
2023-04-12T04:31:12.730Z,60.82
2023-04-12T04:33:40.317Z,61.06
2023-04-12T04:36:07.954Z,61.76
2023-04-12T04:38:34.806Z,61.82
2023-04-12T04:41:04.931Z,61.93
2023-04-12T04:43:34.201Z,61.61
2023-04-12T04:46:01.079Z,60.80
2023-04-12T04:48:29.993Z,60.56
2023-04-12T04:50:56.713Z,60.92
2023-04-12T04:53:23.542Z,61.81
2023-04-12T04:55:57.256Z,61.27
2023-04-12T04:58:23.854Z,61.44
2023-04-12T05:00:50.593Z,61.01
2023-04-12T05:03:18.533Z,61.59
2023-04-12T05:05:48.135Z,60.18
2023-04-12T05:08:14.752Z,59.84
2023-04-12T05:10:44.159Z,60.71
2023-04-12T05:13:11.085Z,61.26
2023-04-12T05:15:40.559Z,59.91
2023-04-12T05:18:07.286Z,60.15
2023-04-12T05:20:33.881Z,59.48
2023-04-12T05:23:02.282Z,59.18
2023-04-12T05:25:28.898Z,59.17
2023-04-12T05:27:55.704Z,58.27
2023-04-12T05:30:22.560Z,59.01
2023-04-12T05:32:49.225Z,58.76
2023-04-12T05:35:16.175Z,59.11
2023-04-12T05:37:42.815Z,59.61
2023-04-12T05:40:09.952Z,57.56
2023-04-12T05:42:39.538Z,57.55
2023-04-12T05:45:06.874Z,56.82
2023-04-12T05:47:33.512Z,57.52
2023-04-12T05:50:00.340Z,56.82
2023-04-12T05:52:26.979Z,56.23
2023-04-12T05:54:53.733Z,56.02
2023-04-12T05:57:20.351Z,56.33
2023-04-12T05:59:46.984Z,56.26
2023-04-12T06:02:13.658Z,56.28
2023-04-12T06:04:50.135Z,57.14
2023-04-12T06:07:19.451Z,56.27
2023-04-12T06:09:46.300Z,56.21
2023-04-12T06:12:12.894Z,56.38
2023-04-12T06:14:39.505Z,55.52
2023-04-12T06:17:06.121Z,55.71
2023-04-12T06:19:32.784Z,56.23
2023-04-12T06:21:59.402Z,57.02
2023-04-12T06:24:26.028Z,56.64
2023-04-12T06:26:52.635Z,56.70
2023-04-12T06:29:19.269Z,57.49
2023-04-12T06:31:45.943Z,55.96
2023-04-12T06:34:12.672Z,56.33
2023-04-12T06:36:41.620Z,55.56
2023-04-12T06:39:09.669Z,56.22
2023-04-12T06:41:37.136Z,56.23
2023-04-12T06:44:03.810Z,55.63
2023-04-12T06:46:30.880Z,54.86
2023-04-12T06:48:58.065Z,55.55
2023-04-12T06:51:25.087Z,56.93
2023-04-12T06:53:51.668Z,56.97
2023-04-12T06:56:18.936Z,56.16
2023-04-12T06:58:45.962Z,56.16
2023-04-12T07:01:13.494Z,55.65
2023-04-12T07:03:40.749Z,57.18
2023-04-12T07:06:17.697Z,56.55
2023-04-12T07:08:51.528Z,56.12
2023-04-12T07:11:20.595Z,55.16
2023-04-12T07:13:48.162Z,55.44
2023-04-12T07:16:14.764Z,55.72
2023-04-12T07:18:41.569Z,56.21
2023-04-12T07:21:08.393Z,55.52
2023-04-12T07:23:35.006Z,56.48
2023-04-12T07:26:02.723Z,57.39
2023-04-12T07:28:29.437Z,56.26
2023-04-12T07:30:56.215Z,56.47
2023-04-12T07:33:23.032Z,56.40
2023-04-12T07:35:49.748Z,55.73
2023-04-12T07:38:16.941Z,56.17
2023-04-12T07:40:43.855Z,56.90
2023-04-12T07:43:10.586Z,55.46
2023-04-12T07:45:38.128Z,55.77
2023-04-12T07:48:05.537Z,54.98
2023-04-12T07:50:32.217Z,55.63
2023-04-12T07:53:19.093Z,54.89
2023-04-12T07:55:46.455Z,53.77
2023-04-12T07:58:13.121Z,52.89
2023-04-12T08:00:39.860Z,52.79
2023-04-12T08:03:06.644Z,52.35
2023-04-12T08:05:33.469Z,50.70
2023-04-12T08:08:00.225Z,48.90
2023-04-12T08:10:26.901Z,47.02
2023-04-12T08:12:53.525Z,46.21
2023-04-12T08:15:20.251Z,47.51
2023-04-12T08:17:48.127Z,47.94
2023-04-12T08:20:18.010Z,47.72
2023-04-12T08:22:45.820Z,46.45
2023-04-12T08:25:13.230Z,45.47
2023-04-12T08:27:42.316Z,46.35
2023-04-12T08:30:10.181Z,45.54
2023-04-12T08:32:37.612Z,45.27
2023-04-12T08:35:05.409Z,45.44
2023-04-12T08:37:32.291Z,45.45
2023-04-12T08:40:07.259Z,44.78
2023-04-12T08:42:38.052Z,44.71
2023-04-12T08:45:06.328Z,45.64
2023-04-12T08:47:34.790Z,44.68
2023-04-12T08:50:02.838Z,44.08
2023-04-12T08:52:29.693Z,43.46
2023-04-12T08:54:56.686Z,43.31
2023-04-12T08:57:23.464Z,42.66
2023-04-12T08:59:52.290Z,43.35
2023-04-12T09:02:19.093Z,43.24
2023-04-12T09:04:53.615Z,43.88
2023-04-12T09:07:28.074Z,42.93
2023-04-12T09:09:55.207Z,42.31
2023-04-12T09:12:24.291Z,41.36
2023-04-12T09:15:09.986Z,41.39
2023-04-12T09:17:37.154Z,41.18
2023-04-12T09:20:07.457Z,40.99
2023-04-12T09:22:40.235Z,40.98
2023-04-12T09:25:07.571Z,40.72
2023-04-12T09:27:51.936Z,41.17
2023-04-12T09:30:20.357Z,40.57
2023-04-12T09:32:50.919Z,39.03
2023-04-12T09:35:17.830Z,38.37
2023-04-12T09:37:44.640Z,38.80
2023-04-12T09:40:11.694Z,39.44
2023-04-12T09:42:54.416Z,39.09
2023-04-12T09:45:22.076Z,39.36
2023-04-12T09:47:49.252Z,39.69
2023-04-12T09:50:29.812Z,39.03
2023-04-12T09:52:57.691Z,39.47
2023-04-12T09:55:27.330Z,39.10
2023-04-12T09:57:55.379Z,36.50
2023-04-12T10:00:24.799Z,34.19
2023-04-12T10:02:53.605Z,33.24
2023-04-12T10:05:23.548Z,33.09
2023-04-12T10:07:51.035Z,32.72
2023-04-12T10:10:19.833Z,31.47
2023-04-12T10:12:48.484Z,30.68
2023-04-12T10:15:20.998Z,30.91
2023-04-12T10:17:55.103Z,33.26
2023-04-12T10:20:25.525Z,32.80
2023-04-12T10:22:55.299Z,32.08
2023-04-12T10:25:25.420Z,32.25
2023-04-12T10:27:52.513Z,33.13
2023-04-12T10:30:30.673Z,33.57
2023-04-12T10:33:03.644Z,32.19
2023-04-12T10:35:48.894Z,32.36
2023-04-12T10:38:16.544Z,33.23
2023-04-12T10:41:07.968Z,33.21
2023-04-12T10:43:35.284Z,30.38
2023-04-12T10:46:05.324Z,30.94
2023-04-12T10:48:37.174Z,30.57
2023-04-12T10:51:25.598Z,30.62
2023-04-12T10:53:53.720Z,28.74
2023-04-12T10:56:32.848Z,28.94
2023-04-12T10:59:01.629Z,29.13
2023-04-12T11:01:29.335Z,27.95
2023-04-12T11:04:25.357Z,29.62
2023-04-12T11:07:21.512Z,28.14
2023-04-12T11:09:48.768Z,27.55
2023-04-12T11:12:16.657Z,27.05
2023-04-12T11:14:47.079Z,26.38
2023-04-12T11:17:14.536Z,26.24
2023-04-12T11:19:57.780Z,26.09
2023-04-12T11:22:27.746Z,26.11
2023-04-12T11:24:59.301Z,26.34
2023-04-12T11:27:27.548Z,26.29
2023-04-12T11:29:56.982Z,26.15
2023-04-12T11:32:27.152Z,26.36
2023-04-12T11:34:56.212Z,26.28
2023-04-12T11:37:23.723Z,24.70
2023-04-12T11:39:53.270Z,25.06
2023-04-12T11:42:22.723Z,25.37
2023-04-12T11:44:56.314Z,24.75
2023-04-12T11:47:25.858Z,25.60
2023-04-12T11:49:58.153Z,24.86
2023-04-12T11:52:33.400Z,24.70
2023-04-12T11:55:06.850Z,25.45
2023-04-12T11:57:34.686Z,25.81
2023-04-12T12:00:02.445Z,25.74
2023-04-12T12:02:32.973Z,26.57
2023-04-12T12:05:04.196Z,26.54
2023-04-12T12:07:31.690Z,27.00
2023-04-12T12:09:58.840Z,26.25
2023-04-12T12:12:25.720Z,26.89
2023-04-12T12:14:52.356Z,27.93
2023-04-12T12:17:19.539Z,26.66
2023-04-12T12:19:46.639Z,26.43
2023-04-12T12:22:17.506Z,27.08
2023-04-12T12:25:02.436Z,27.54
2023-04-12T12:27:38.183Z,27.79
2023-04-12T12:30:07.766Z,28.16
2023-04-12T12:32:35.781Z,26.41
2023-04-12T12:35:03.519Z,25.71
2023-04-12T12:37:31.389Z,26.64
2023-04-12T12:40:15.748Z,27.74
2023-04-12T12:42:56.316Z,28.61
2023-04-12T12:45:25.028Z,27.87
2023-04-12T12:47:51.771Z,25.96
2023-04-12T12:50:20.610Z,26.17
2023-04-12T12:52:49.118Z,26.78
2023-04-12T12:55:16.634Z,27.18
2023-04-12T12:57:51.980Z,26.58
2023-04-12T13:00:29.463Z,26.98
2023-04-12T13:02:56.638Z,26.86
2023-04-12T13:05:23.830Z,27.56
2023-04-12T13:07:50.553Z,27.79
2023-04-12T13:10:17.398Z,27.97
2023-04-12T13:12:44.074Z,27.35
2023-04-12T13:15:22.441Z,27.18
2023-04-12T13:17:53.760Z,28.00
2023-04-12T13:20:21.151Z,27.73
2023-04-12T13:22:48.040Z,28.48
2023-04-12T13:25:14.840Z,28.04
2023-04-12T13:27:41.672Z,28.01
2023-04-12T13:30:08.794Z,28.64
2023-04-12T13:32:35.974Z,29.25
2023-04-12T13:35:03.539Z,29.27
2023-04-12T13:37:30.165Z,28.63
2023-04-12T13:39:57.150Z,28.56
2023-04-12T13:42:24.420Z,28.00
2023-04-12T13:44:51.231Z,28.00
2023-04-12T13:47:18.035Z,28.55
2023-04-12T13:49:44.940Z,28.28
2023-04-12T13:52:12.299Z,28.67
2023-04-12T13:54:39.127Z,28.62
2023-04-12T13:57:06.024Z,28.86
2023-04-12T13:59:33.088Z,29.40
2023-04-12T14:02:01.036Z,29.18
2023-04-12T14:04:29.072Z,28.98
2023-04-12T14:06:57.089Z,29.30
2023-04-12T14:09:24.249Z,29.23
2023-04-12T14:11:55.224Z,29.41
2023-04-12T14:14:22.898Z,29.00
2023-04-12T14:16:51.847Z,28.62
2023-04-12T14:19:18.538Z,28.05
2023-04-12T14:21:45.585Z,28.30
2023-04-12T14:24:12.583Z,27.80
2023-04-12T14:26:39.991Z,27.44
2023-04-12T14:29:07.309Z,27.90
2023-04-12T14:31:37.801Z,29.26
2023-04-12T14:34:05.491Z,28.79
2023-04-12T14:36:33.523Z,28.76
2023-04-12T14:39:01.654Z,28.85
2023-04-12T14:41:28.583Z,28.74
2023-04-12T14:43:55.261Z,28.53
2023-04-12T14:46:22.296Z,28.83
2023-04-12T14:48:49.202Z,29.40
2023-04-12T14:51:16.061Z,28.81
2023-04-12T14:53:43.295Z,29.32
2023-04-12T14:56:25.658Z,28.35
2023-04-12T14:58:54.690Z,28.64
2023-04-12T15:01:23.559Z,28.50
2023-04-12T15:03:52.185Z,29.05
2023-04-12T15:06:20.578Z,29.51
2023-04-12T15:08:49.552Z,29.78
2023-04-12T15:11:19.265Z,29.69
2023-04-12T15:13:45.893Z,28.74
2023-04-12T15:16:12.687Z,29.18
2023-04-12T15:18:41.681Z,29.94
2023-04-12T15:21:10.522Z,30.76
2023-04-12T15:23:38.410Z,30.13
2023-04-12T15:26:09.338Z,29.61
2023-04-12T15:28:36.539Z,29.64
2023-04-12T15:31:04.525Z,29.43
2023-04-12T15:33:34.721Z,29.56
2023-04-12T15:36:02.381Z,30.14
2023-04-12T15:38:29.958Z,30.17
2023-04-12T15:40:59.124Z,30.25
2023-04-12T15:43:26.863Z,29.76
2023-04-12T15:45:54.894Z,29.46
2023-04-12T15:48:23.217Z,29.83
2023-04-12T15:50:50.974Z,30.37
2023-04-12T15:53:21.604Z,30.64
2023-04-12T15:55:48.835Z,30.43
2023-04-12T15:58:15.527Z,30.63
2023-04-12T16:00:42.460Z,30.57
2023-04-12T16:03:09.604Z,30.56
2023-04-12T16:05:36.591Z,31.20
2023-04-12T16:08:03.631Z,31.63
2023-04-12T16:10:30.524Z,31.71
2023-04-12T16:12:58.341Z,31.34
2023-04-12T16:15:25.191Z,31.86
2023-04-12T16:17:54.412Z,31.96
2023-04-12T16:20:21.992Z,31.89
2023-04-12T16:22:54.248Z,32.90
2023-04-12T16:25:22.492Z,32.61
2023-04-12T16:27:49.143Z,31.74
2023-04-12T16:30:16.098Z,32.35
2023-04-12T16:32:46.742Z,32.32
2023-04-12T16:35:15.016Z,32.36
2023-04-12T16:37:42.753Z,32.94
2023-04-12T16:40:13.077Z,33.00
2023-04-12T16:42:44.255Z,33.11
2023-04-12T16:45:13.979Z,32.93
2023-04-12T16:47:40.984Z,32.97
2023-04-12T16:50:12.831Z,33.40
2023-04-12T16:52:41.072Z,33.24
2023-04-12T16:55:11.032Z,32.81
2023-04-12T16:57:42.046Z,33.11
2023-04-12T17:00:19.228Z,33.24
2023-04-12T17:02:47.706Z,33.49
2023-04-12T17:05:17.657Z,33.65
2023-04-12T17:07:49.910Z,33.94
2023-04-12T17:10:18.178Z,33.81
2023-04-12T17:12:48.065Z,33.57
2023-04-12T17:15:17.414Z,33.90
2023-04-12T17:17:50.061Z,34.66
2023-04-12T17:20:18.554Z,34.82
2023-04-12T17:22:46.260Z,34.79
2023-04-12T17:25:13.380Z,34.97
2023-04-12T17:27:41.174Z,35.44
2023-04-12T17:30:11.171Z,34.96
2023-04-12T17:32:39.225Z,34.45
2023-04-12T17:35:06.912Z,35.15
2023-04-12T17:37:34.889Z,35.61
2023-04-12T17:40:02.187Z,34.77
2023-04-12T17:42:28.768Z,34.53
2023-04-12T17:44:55.540Z,34.91
2023-04-12T17:47:23.091Z,35.71
2023-04-12T17:49:50.065Z,35.32
2023-04-12T17:52:17.368Z,35.47
2023-04-12T17:54:44.051Z,35.63
2023-04-12T17:57:10.835Z,36.03
2023-04-12T17:59:37.563Z,36.13
2023-04-12T18:02:04.381Z,36.00
2023-04-12T18:04:31.421Z,36.11
2023-04-12T18:06:58.795Z,36.60
2023-04-12T18:09:29.301Z,36.33
2023-04-12T18:11:56.570Z,36.14
2023-04-12T18:14:23.744Z,35.78
2023-04-12T18:16:50.352Z,35.82
2023-04-12T18:19:19.105Z,35.54
2023-04-12T18:21:49.469Z,36.46
2023-04-12T18:24:16.997Z,35.88
2023-04-12T18:26:44.548Z,35.57
2023-04-12T18:29:16.796Z,35.86
2023-04-12T18:31:43.611Z,35.98
2023-04-12T18:34:10.309Z,36.03
2023-04-12T18:36:37.295Z,36.34
2023-04-12T18:39:04.682Z,35.93
2023-04-12T18:41:31.712Z,35.45
2023-04-12T18:43:58.745Z,35.93
2023-04-12T18:46:29.591Z,35.24
2023-04-12T18:48:56.922Z,34.87
2023-04-12T18:51:23.953Z,35.51
2023-04-12T18:53:53.551Z,35.46
2023-04-12T18:56:24.561Z,35.56
2023-04-12T18:58:55.732Z,34.28
2023-04-12T19:01:23.324Z,35.64
2023-04-12T19:03:50.473Z,35.08
2023-04-12T19:06:18.481Z,35.23
2023-04-12T19:08:45.390Z,35.31
2023-04-12T19:11:12.500Z,35.76
2023-04-12T19:13:39.895Z,35.69
2023-04-12T19:16:09.525Z,34.72
2023-04-12T19:18:36.189Z,35.63
2023-04-12T19:21:03.540Z,35.63
2023-04-12T19:23:31.281Z,35.75
2023-04-12T19:26:00.159Z,34.94
2023-04-12T19:28:27.525Z,34.63
2023-04-12T19:30:54.848Z,35.70
2023-04-12T19:33:21.474Z,35.21
2023-04-12T19:35:48.153Z,35.11
2023-04-12T19:38:15.833Z,35.52
2023-04-12T19:40:43.141Z,35.33
2023-04-12T19:43:09.924Z,35.25
2023-04-12T19:45:36.608Z,35.17
2023-04-12T19:48:03.516Z,34.46
2023-04-12T19:50:31.232Z,34.29
2023-04-12T19:52:58.036Z,34.84
2023-04-12T19:55:26.027Z,34.33
2023-04-12T19:57:53.221Z,34.74
2023-04-12T20:00:20.662Z,35.31
2023-04-12T20:02:49.240Z,34.89
2023-04-12T20:05:16.766Z,35.57
2023-04-12T20:07:44.243Z,35.48
2023-04-12T20:10:11.974Z,35.19
2023-04-12T20:12:39.214Z,35.07
2023-04-12T20:15:08.787Z,36.64
2023-04-12T20:17:36.131Z,36.17
2023-04-12T20:20:07.726Z,35.49
2023-04-12T20:22:35.526Z,35.67
2023-04-12T20:25:02.272Z,35.80
2023-04-12T20:27:30.878Z,37.07
2023-04-12T20:29:58.995Z,36.73
2023-04-12T20:32:25.869Z,36.17
2023-04-12T20:34:52.482Z,36.14
2023-04-12T20:37:19.085Z,36.37
2023-04-12T20:39:45.706Z,37.01
2023-04-12T20:42:13.029Z,37.45
2023-04-12T20:44:39.626Z,37.61
2023-04-12T20:47:07.348Z,37.76
2023-04-12T20:49:33.981Z,37.33
2023-04-12T20:52:00.752Z,36.90
2023-04-12T20:54:31.556Z,36.63
2023-04-12T20:56:59.627Z,36.68
2023-04-12T20:59:29.620Z,36.27
2023-04-12T21:01:57.277Z,36.47
2023-04-12T21:04:26.224Z,36.79
2023-04-12T21:06:55.471Z,37.29
2023-04-12T21:09:24.962Z,36.90
2023-04-12T21:11:57.982Z,37.29
2023-04-12T21:14:24.759Z,37.61
2023-04-12T21:16:52.618Z,36.62
2023-04-12T21:19:19.513Z,36.51
2023-04-12T21:21:46.662Z,36.27
2023-04-12T21:24:13.408Z,36.23
2023-04-12T21:26:40.869Z,35.99
2023-04-12T21:29:07.438Z,35.49
2023-04-12T21:31:34.252Z,35.72
2023-04-12T21:34:00.883Z,36.01
2023-04-12T21:36:28.796Z,35.80
2023-04-12T21:38:56.891Z,36.10
2023-04-12T21:41:25.121Z,35.35
2023-04-12T21:43:52.469Z,35.45
2023-04-12T21:46:19.351Z,36.10
2023-04-12T21:48:46.338Z,37.07
2023-04-12T21:51:13.105Z,36.55
2023-04-12T21:53:39.754Z,35.83
2023-04-12T21:56:06.867Z,36.79
2023-04-12T21:58:34.196Z,37.09
2023-04-12T22:01:01.228Z,36.45
2023-04-12T22:03:28.539Z,36.93
2023-04-12T22:06:04.444Z,37.76
2023-04-12T22:08:33.144Z,37.45
2023-04-12T22:11:00.374Z,36.58
2023-04-12T22:13:27.514Z,37.92
2023-04-12T22:15:54.225Z,37.31
2023-04-12T22:18:20.892Z,36.36
2023-04-12T22:20:48.104Z,36.76
2023-04-12T22:23:18.149Z,37.26
2023-04-12T22:25:45.672Z,36.82
2023-04-12T22:28:12.594Z,36.22
2023-04-12T22:30:39.708Z,36.16
2023-04-12T22:33:08.439Z,37.49
2023-04-12T22:35:36.473Z,37.23
2023-04-12T22:38:04.224Z,37.23
2023-04-12T22:40:31.001Z,36.68
2023-04-12T22:42:58.257Z,36.45
2023-04-12T22:45:25.212Z,36.71
2023-04-12T22:47:52.923Z,37.30
2023-04-12T22:50:20.081Z,39.10
2023-04-12T22:52:49.889Z,38.90
2023-04-12T22:55:18.274Z,38.56
2023-04-12T22:57:45.299Z,38.13
2023-04-12T23:00:16.441Z,37.75
2023-04-12T23:02:44.117Z,37.03
2023-04-12T23:05:12.160Z,36.59
2023-04-12T23:07:38.893Z,36.99
2023-04-12T23:10:06.484Z,36.33
2023-04-12T23:12:33.079Z,38.56
2023-04-12T23:14:59.706Z,38.21
2023-04-12T23:17:26.774Z,39.32
2023-04-12T23:19:53.643Z,39.25
2023-04-12T23:22:48.576Z,38.05
2023-04-12T23:25:21.763Z,40.84
2023-04-12T23:27:49.194Z,41.03
2023-04-12T23:30:20.240Z,39.33
2023-04-12T23:32:47.179Z,39.07
2023-04-12T23:35:14.547Z,38.29
2023-04-12T23:37:41.753Z,38.34
2023-04-12T23:40:14.880Z,38.27
2023-04-12T23:42:43.513Z,37.55
2023-04-12T23:45:10.863Z,37.62
2023-04-12T23:47:38.104Z,36.77
2023-04-12T23:50:05.936Z,36.58
2023-04-12T23:52:32.638Z,35.48
2023-04-12T23:54:59.684Z,35.01
2023-04-12T23:57:26.363Z,33.81
2023-04-12T23:59:53.087Z,36.14
